Time;durP1;ratioP1;P1;durP2;ratioP2;P2;SDS_P1;SDS_P2;PMS_P1;PMS_P2;Temp;Humidity;BMP_temperature;BMP_pressure;BME280_temperature;BME280_humidity;BME280_pressure;Samples;Min_cycle;Max_cycle;Signal;HPM_P1;HPM_P2
2023/09/21 00:00:27;;;;;;;19.17;18.27;;;23.00;91.10;;;;;;5052038;28;20526;-63
2023/09/21 00:02:55;;;;;;;18.03;17.43;;;22.90;91.00;;;;;;5052170;28;20534;-64
2023/09/21 00:05:23;;;;;;;19.00;18.30;;;22.90;91.00;;;;;;5051953;28;20468;-62
2023/09/21 00:07:50;;;;;;;18.00;17.40;;;22.90;91.00;;;;;;5038086;28;20453;-61
2023/09/21 00:10:19;;;;;;;18.00;17.40;;;22.90;91.00;;;;;;5032125;28;20469;-61
2023/09/21 00:12:46;;;;;;;17.57;16.97;;;22.90;91.00;;;;;;5032295;28;20448;-63
2023/09/21 00:15:21;;;;;;;17.47;16.87;;;22.90;91.10;;;;;;5031814;28;20492;-62
2023/09/21 00:17:51;;;;;;;19.37;18.20;;;22.90;91.00;;;;;;5044919;28;20447;-63
2023/09/21 00:20:30;;;;;;;18.33;17.73;;;22.80;91.00;;;;;;5051850;28;20483;-63
2023/09/21 00:22:58;;;;;;;18.17;17.50;;;22.80;90.90;;;;;;5051727;28;20536;-62
2023/09/21 00:25:27;;;;;;;17.57;16.97;;;22.90;91.00;;;;;;5051296;28;20986;-63
2023/09/21 00:27:54;;;;;;;18.17;17.57;;;22.80;91.00;;;;;;5037675;28;20445;-63
2023/09/21 00:30:23;;;;;;;18.13;17.43;;;22.80;90.90;;;;;;5031712;28;20507;-62
2023/09/21 00:32:50;;;;;;;18.20;17.57;;;22.80;90.90;;;;;;5031868;28;20448;-62
2023/09/21 00:35:18;;;;;;;17.00;16.40;;;22.80;90.90;;;;;;5031637;28;20527;-62
2023/09/21 00:37:46;;;;;;;18.10;17.40;;;22.80;90.80;;;;;;5043854;28;20463;-62
2023/09/21 00:40:23;;;;;;;18.70;18.00;;;22.80;90.80;;;;;;5051596;28;21014;-61
2023/09/21 00:42:51;;;;;;;19.13;18.43;;;22.80;90.80;;;;;;5051898;28;20432;-63
2023/09/21 00:45:20;;;;;;;17.53;16.93;;;22.80;90.80;;;;;;5051320;28;20483;-63
2023/09/21 00:47:51;;;;;;;18.20;17.60;;;22.80;90.80;;;;;;5038855;28;20453;-61
2023/09/21 00:50:22;;;;;;;17.70;17.10;;;22.80;90.90;;;;;;5031662;28;20442;-61
2023/09/21 00:52:52;;;;;;;18.30;17.70;;;22.80;90.80;;;;;;5031657;28;20441;-62
2023/09/21 00:55:25;;;;;;;17.50;16.90;;;22.70;90.80;;;;;;5031343;28;21010;-63
2023/09/21 00:57:55;;;;;;;24.90;24.10;;;22.70;90.90;;;;;;5044097;28;20448;-63
2023/09/21 01:00:28;;;;;;;17.43;16.73;;;22.70;90.90;;;;;;5051359;28;20506;-63
2023/09/21 01:03:05;;;;;;;17.03;16.43;;;22.70;90.90;;;;;;5051510;28;20498;-63
2023/09/21 01:05:34;;;;;;;17.77;17.07;;;22.70;91.20;;;;;;5051093;28;20464;-62
2023/09/21 01:08:04;;;;;;;17.50;16.90;;;22.70;90.80;;;;;;5041337;28;20488;-63
2023/09/21 01:10:33;;;;;;;17.63;17.03;;;22.70;90.80;;;;;;5053486;28;20440;-63
2023/09/21 01:13:00;;;;;;;18.80;18.10;;;22.70;90.90;;;;;;5055267;28;20450;-62
2023/09/21 01:15:27;;;;;;;18.17;17.57;;;22.70;91.00;;;;;;5055051;28;20555;-63
2023/09/21 01:17:54;;;;;;;17.20;16.60;;;22.70;90.90;;;;;;5049476;28;20444;-62
2023/09/21 01:20:23;;;;;;;17.90;17.30;;;22.70;90.80;;;;;;5050810;28;20523;-63
2023/09/21 01:23:11;;;;;;;17.60;17.00;;;22.70;90.80;;;;;;5055155;28;20448;-62
2023/09/21 01:25:42;;;;;;;17.80;17.10;;;22.70;90.90;;;;;;5054894;28;21061;-62
2023/09/21 01:28:10;;;;;;;18.70;18.00;;;22.70;90.80;;;;;;5042357;28;20984;-63
2023/09/21 01:30:38;;;;;;;17.70;17.00;;;22.60;90.80;;;;;;5053638;28;20502;-63
2023/09/21 01:33:08;;;;;;;18.50;17.90;;;22.60;90.80;;;;;;5035663;28;20932;-62
2023/09/21 01:35:37;;;;;;;18.17;17.57;;;22.60;90.80;;;;;;5034679;28;20457;-63
2023/09/21 01:38:06;;;;;;;17.67;17.07;;;22.70;90.90;;;;;;5036166;28;20631;-63
2023/09/21 01:40:34;;;;;;;18.40;17.70;;;22.60;90.80;;;;;;5034967;28;20488;-63
2023/09/21 01:43:05;;;;;;;20.03;19.33;;;22.60;90.80;;;;;;5034891;28;20923;-64
2023/09/21 01:45:31;;;;;;;19.37;18.57;;;22.60;90.70;;;;;;5034797;28;20999;-63
2023/09/21 01:48:00;;;;;;;18.50;17.80;;;22.60;90.70;;;;;;5048761;28;20858;-62
2023/09/21 01:50:26;;;;;;;17.63;17.03;;;22.60;90.70;;;;;;5054619;28;20467;-62
2023/09/21 01:52:52;;;;;;;17.53;16.93;;;22.60;90.60;;;;;;5054591;28;20447;-62
2023/09/21 01:55:20;;;;;;;17.73;17.10;;;22.60;90.70;;;;;;5054430;28;20879;-63
2023/09/21 01:57:48;;;;;;;17.80;17.10;;;22.60;90.70;;;;;;5045334;28;20441;-62
2023/09/21 02:00:26;;;;;;;18.80;17.80;;;22.50;90.60;;;;;;5050486;28;21030;-62
2023/09/21 02:02:54;;;;;;;18.53;17.87;;;22.60;90.70;;;;;;5054398;28;20991;-63
2023/09/21 02:05:21;;;;;;;18.93;18.10;;;22.50;90.70;;;;;;5054309;28;20996;-62
2023/09/21 02:07:48;;;;;;;18.90;18.30;;;22.50;90.60;;;;;;5042362;28;20575;-64
2023/09/21 02:10:17;;;;;;;18.50;17.80;;;22.50;90.70;;;;;;5034336;28;20477;-63
2023/09/21 02:12:56;;;;;;;19.67;18.87;;;22.60;90.60;;;;;;5034303;28;20459;-63
2023/09/21 02:15:26;;;;;;;19.73;19.03;;;22.60;90.60;;;;;;5039550;28;20468;-63
2023/09/21 02:17:55;;;;;;;18.90;18.20;;;22.60;90.50;;;;;;5054049;28;20448;-63
2023/09/21 02:20:22;;;;;;;19.50;18.70;;;22.60;90.60;;;;;;5053996;28;20926;-63
2023/09/21 02:22:51;;;;;;;19.60;18.90;;;22.50;90.50;;;;;;5054089;28;20447;-63
2023/09/21 02:25:18;;;;;;;19.50;18.80;;;22.50;90.50;;;;;;5049037;28;20469;-63
2023/09/21 02:27:47;;;;;;;19.30;18.67;;;22.50;90.50;;;;;;5034124;28;20448;-62
2023/09/21 02:30:16;;;;;;;19.03;18.23;;;22.50;90.40;;;;;;5034014;28;20568;-62
2023/09/21 02:32:48;;;;;;;18.87;18.27;;;22.50;90.50;;;;;;5033983;28;20964;-61
2023/09/21 02:35:16;;;;;;;18.40;17.80;;;22.50;90.50;;;;;;5037400;28;20833;-62
2023/09/21 02:37:45;;;;;;;19.30;18.60;;;22.60;90.60;;;;;;5053728;28;20475;-61
2023/09/21 02:40:15;;;;;;;19.50;18.67;;;22.50;90.50;;;;;;5053610;28;20492;-61
2023/09/21 02:42:43;;;;;;;18.70;18.10;;;22.60;90.60;;;;;;5053795;28;20852;-63
2023/09/21 02:45:11;;;;;;;19.23;18.50;;;22.50;90.50;;;;;;5050168;28;20465;-63
2023/09/21 02:47:39;;;;;;;19.47;18.67;;;22.50;90.50;;;;;;5033749;28;20535;-62
2023/09/21 02:50:15;;;;;;;19.10;18.40;;;22.50;90.60;;;;;;5033472;28;20505;-64
2023/09/21 02:52:47;;;;;;;19.57;18.90;;;22.50;90.70;;;;;;5033730;28;20445;-63
2023/09/21 02:55:17;;;;;;;19.00;18.30;;;22.50;90.70;;;;;;5036312;28;20503;-63
2023/09/21 02:57:47;;;;;;;19.20;18.50;;;22.50;90.70;;;;;;5053390;28;20531;-63
2023/09/21 03:00:26;;;;;;;18.73;18.03;;;22.50;90.70;;;;;;5053251;28;20491;-63
2023/09/21 03:02:54;;;;;;;20.33;19.63;;;22.40;90.70;;;;;;5053459;28;20444;-63
2023/09/21 03:05:24;;;;;;;21.60;20.83;;;22.40;90.70;;;;;;5049091;28;20463;-63
2023/09/21 03:07:51;;;;;;;19.83;19.17;;;22.40;90.70;;;;;;5033571;28;20808;-62
2023/09/21 03:10:18;;;;;;;20.80;19.80;;;22.40;90.70;;;;;;5033221;28;21055;-62
2023/09/21 03:12:48;;;;;;;20.63;19.93;;;22.40;90.60;;;;;;5033600;28;20451;-63
2023/09/21 03:15:18;;;;;;;21.47;20.30;;;22.40;90.70;;;;;;5035577;28;20464;-62
2023/09/21 03:17:45;;;;;;;21.43;20.53;;;22.40;90.60;;;;;;5052977;28;20480;-63
2023/09/21 03:20:26;;;;;;;20.73;19.83;;;22.40;90.60;;;;;;5052778;28;20480;-63
2023/09/21 03:22:55;;;;;;;20.30;19.60;;;22.40;90.60;;;;;;5053304;28;20514;-62
2023/09/21 03:25:27;;;;;;;19.83;19.03;;;22.40;90.70;;;;;;5034969;28;20480;-63
2023/09/21 03:27:55;;;;;;;19.83;19.13;;;22.40;90.60;;;;;;5032942;28;20445;-62
2023/09/21 03:30:24;;;;;;;20.37;19.67;;;22.40;90.60;;;;;;5032156;28;20441;-61
2023/09/21 03:32:51;;;;;;;20.13;19.43;;;22.40;90.60;;;;;;5032689;28;20448;-63
2023/09/21 03:35:18;;;;;;;20.90;20.20;;;22.40;90.60;;;;;;5045224;28;20472;-63
2023/09/21 03:37:47;;;;;;;19.80;19.10;;;22.40;90.60;;;;;;5052715;28;20858;-63
2023/09/21 03:40:17;;;;;;;20.97;20.27;;;22.40;90.60;;;;;;5052544;28;20862;-61
2023/09/21 03:42:44;;;;;;;21.97;21.07;;;22.40;90.80;;;;;;5052860;28;20440;-63
2023/09/21 03:45:15;;;;;;;19.70;19.10;;;22.30;90.70;;;;;;5036355;28;20523;-63
2023/09/21 03:47:42;;;;;;;19.90;19.30;;;22.30;90.80;;;;;;5032661;28;20472;-63
2023/09/21 03:50:12;;;;;;;20.60;19.90;;;22.40;90.80;;;;;;5032584;28;20480;-62
2023/09/21 03:52:40;;;;;;;21.47;20.77;;;22.30;90.70;;;;;;5032491;28;20441;-62
2023/09/21 03:55:10;;;;;;;20.60;19.77;;;22.40;90.90;;;;;;5046702;28;20474;-62
2023/09/21 03:57:38;;;;;;;21.30;20.37;;;22.40;90.90;;;;;;5052312;28;20450;-62
2023/09/21 04:00:18;;;;;;;21.40;20.70;;;22.30;90.90;;;;;;5052398;28;20563;-65
2023/09/21 04:02:46;;;;;;;21.33;20.60;;;22.40;91.40;;;;;;5052269;28;20539;-65
2023/09/21 04:05:20;;;;;;;22.03;21.03;;;22.60;90.90;;;;;;5043001;28;20776;-65
2023/09/21 04:07:51;;;;;;;24.70;23.70;;;22.60;90.70;;;;;;5032362;28;20449;-61
2023/09/21 04:10:18;;;;;;;22.60;21.80;;;22.60;90.30;;;;;;5032203;28;20933;-62
2023/09/21 04:12:50;;;;;;;24.07;23.27;;;22.50;90.70;;;;;;5031977;28;20533;-61
2023/09/21 04:15:19;;;;;;;26.53;25.63;;;22.50;90.40;;;;;;5047078;28;20819;-61
2023/09/21 04:17:47;;;;;;;26.23;25.37;;;22.50;90.50;;;;;;5051918;28;20444;-62
2023/09/21 04:20:18;;;;;;;24.20;23.30;;;22.50;90.50;;;;;;5051951;28;20526;-61
2023/09/21 04:22:49;;;;;;;23.33;22.53;;;22.40;90.50;;;;;;5051690;28;20547;-61
2023/09/21 04:25:24;;;;;;;23.67;22.87;;;22.40;90.50;;;;;;5042761;28;20475;-64
2023/09/21 04:27:53;;;;;;;24.20;23.20;;;22.40;90.60;;;;;;5033242;28;20921;-64
2023/09/21 04:30:24;;;;;;;27.20;25.90;;;22.40;90.70;;;;;;5032532;28;20802;-63
2023/09/21 04:32:57;;;;;;;39.57;37.47;;;22.40;92.20;;;;;;5032646;28;20449;-65
2023/09/21 04:35:24;;;;;;;26.07;24.67;;;22.40;92.70;;;;;;5036944;28;20496;-64
2023/09/21 04:37:58;;;;;;;25.03;23.73;;;22.40;92.80;;;;;;5046526;28;20451;-63
2023/09/21 04:40:26;;;;;;;23.70;22.70;;;22.40;92.50;;;;;;5048117;28;20475;-65
2023/09/21 04:42:58;;;;;;;24.20;23.20;;;22.30;92.50;;;;;;5050594;28;20794;-65
2023/09/21 04:45:32;;;;;;;24.50;23.03;;;22.40;92.20;;;;;;5051155;28;20460;-66
2023/09/21 04:48:01;;;;;;;22.47;21.67;;;22.40;92.00;;;;;;5051321;28;20471;-65
2023/09/21 04:50:28;;;;;;;23.50;22.50;;;22.50;91.80;;;;;;5051424;28;20447;-66
2023/09/21 04:52:56;;;;;;;26.50;25.43;;;22.50;91.60;;;;;;5051331;28;20440;-66
2023/09/21 04:55:25;;;;;;;24.60;23.80;;;22.50;91.50;;;;;;5051014;28;20518;-65
2023/09/21 04:57:56;;;;;;;26.23;25.33;;;22.60;91.50;;;;;;5050257;28;20454;-64
2023/09/21 05:00:23;;;;;;;27.23;26.33;;;22.60;91.40;;;;;;5050852;28;20488;-65
2023/09/21 05:02:50;;;;;;;24.43;23.60;;;22.60;91.30;;;;;;5051225;28;20444;-66
2023/09/21 05:05:18;;;;;;;25.83;24.83;;;22.60;91.30;;;;;;5050935;28;20521;-65
2023/09/21 05:07:46;;;;;;;25.77;24.87;;;22.50;91.20;;;;;;5051402;28;20527;-64
2023/09/21 05:10:18;;;;;;;23.77;22.97;;;22.60;91.20;;;;;;5051156;28;20449;-66
2023/09/21 05:12:49;;;;;;;24.00;23.20;;;22.50;91.10;;;;;;5050955;28;20459;-64
2023/09/21 05:15:18;;;;;;;24.90;23.70;;;22.60;91.10;;;;;;5050779;28;20551;-66
2023/09/21 05:17:46;;;;;;;24.80;23.90;;;22.60;91.10;;;;;;5051027;28;20448;-65
2023/09/21 05:20:19;;;;;;;24.73;23.80;;;22.60;91.10;;;;;;5051167;28;20968;-65
2023/09/21 05:22:47;;;;;;;23.23;22.33;;;22.60;91.00;;;;;;5051134;28;20448;-65
2023/09/21 05:25:20;;;;;;;24.10;23.30;;;22.60;91.00;;;;;;5050724;28;20554;-66
2023/09/21 05:27:49;;;;;;;24.33;23.53;;;22.60;90.90;;;;;;5050925;28;20444;-64
2023/09/21 05:30:19;;;;;;;24.87;24.03;;;22.60;91.00;;;;;;5050859;28;20440;-65
2023/09/21 05:32:47;;;;;;;26.07;25.17;;;22.60;91.00;;;;;;5050916;28;20955;-64
2023/09/21 05:35:20;;;;;;;23.53;22.73;;;22.60;90.90;;;;;;5050740;28;20812;-66
2023/09/21 05:37:51;;;;;;;26.30;25.10;;;22.60;90.90;;;;;;5051041;28;20463;-64
2023/09/21 05:40:19;;;;;;;23.93;23.13;;;22.60;90.90;;;;;;5050770;28;20440;-65
2023/09/21 05:42:47;;;;;;;24.50;23.70;;;22.60;90.80;;;;;;5050498;28;20456;-64
2023/09/21 05:45:17;;;;;;;23.50;22.80;;;22.60;90.90;;;;;;5050559;28;20529;-65
2023/09/21 05:47:45;;;;;;;25.00;24.20;;;22.60;90.80;;;;;;5050781;28;20498;-65
2023/09/21 05:50:13;;;;;;;24.40;23.50;;;22.60;90.90;;;;;;5050778;28;20542;-64
2023/09/21 05:52:40;;;;;;;23.07;22.30;;;22.60;90.80;;;;;;5052485;28;20474;-65
2023/09/21 05:55:09;;;;;;;23.53;22.63;;;22.60;90.80;;;;;;5054286;28;20460;-64
2023/09/21 05:57:36;;;;;;;23.57;22.57;;;22.60;90.80;;;;;;5054420;28;20444;-66
2023/09/21 06:00:04;;;;;;;23.97;23.17;;;22.60;90.80;;;;;;5054517;28;20482;-64
2023/09/21 06:02:31;;;;;;;24.40;23.53;;;22.60;90.80;;;;;;5054265;28;20526;-66
2023/09/21 06:04:59;;;;;;;25.43;24.57;;;22.60;90.80;;;;;;5053843;28;20491;-63
2023/09/21 06:07:26;;;;;;;24.43;23.60;;;22.60;90.80;;;;;;5054246;28;20870;-65
2023/09/21 06:09:53;;;;;;;24.67;23.87;;;22.60;90.80;;;;;;5054132;28;20527;-63
2023/09/21 06:12:21;;;;;;;25.10;24.10;;;22.60;90.80;;;;;;5054183;28;20468;-64
2023/09/21 06:14:50;;;;;;;25.70;24.90;;;22.70;90.90;;;;;;5053841;28;20476;-63
2023/09/21 06:17:17;;;;;;;25.60;24.60;;;22.60;90.80;;;;;;5054083;28;20460;-65
2023/09/21 06:19:44;;;;;;;27.40;26.17;;;22.60;90.80;;;;;;5054019;28;20471;-64
2023/09/21 06:22:12;;;;;;;26.10;25.20;;;22.60;90.80;;;;;;5053952;28;20571;-65
2023/09/21 06:24:42;;;;;;;24.90;24.10;;;22.60;90.80;;;;;;5053493;28;20983;-65
2023/09/21 06:27:09;;;;;;;24.77;23.70;;;22.70;90.90;;;;;;5053948;28;20441;-65
2023/09/21 06:29:36;;;;;;;26.10;25.13;;;22.70;90.90;;;;;;5053826;28;20472;-66
2023/09/21 06:32:07;;;;;;;24.80;23.90;;;22.60;90.90;;;;;;5053707;28;20480;-64
2023/09/21 06:34:34;;;;;;;23.93;23.13;;;22.60;90.90;;;;;;5053597;28;20464;-65
2023/09/21 06:37:02;;;;;;;25.27;24.37;;;22.70;90.90;;;;;;5053664;28;20464;-65
2023/09/21 06:39:30;;;;;;;24.30;23.50;;;22.70;91.00;;;;;;5053658;28;20448;-64
2023/09/21 06:41:57;;;;;;;25.47;24.60;;;22.60;90.90;;;;;;5053451;28;20519;-64
2023/09/21 06:44:28;;;;;;;23.43;22.63;;;22.70;91.00;;;;;;5053214;28;20472;-65
2023/09/21 06:46:55;;;;;;;24.53;23.70;;;22.70;91.00;;;;;;5053616;28;20472;-65
2023/09/21 06:49:23;;;;;;;23.50;22.70;;;22.70;91.00;;;;;;5053387;28;20448;-64
2023/09/21 06:51:50;;;;;;;24.97;23.93;;;22.70;91.10;;;;;;5053375;28;20444;-61
2023/09/21 06:54:17;;;;;;;22.90;22.10;;;22.60;91.00;;;;;;5053023;28;20444;-62
2023/09/21 06:56:45;;;;;;;21.83;21.10;;;22.60;91.10;;;;;;5053246;28;20440;-62
2023/09/21 06:59:12;;;;;;;23.30;22.50;;;22.60;91.10;;;;;;5053213;28;20488;-62
2023/09/21 07:01:39;;;;;;;23.30;22.50;;;22.70;91.20;;;;;;5053142;28;20480;-62
2023/09/21 07:04:07;;;;;;;24.23;23.30;;;22.70;91.20;;;;;;5052004;28;20797;-62
2023/09/21 07:06:35;;;;;;;25.00;24.10;;;22.70;91.20;;;;;;5053089;28;20500;-62
2023/09/21 07:09:02;;;;;;;24.03;23.23;;;22.70;91.20;;;;;;5053103;28;20444;-62
2023/09/21 07:11:29;;;;;;;23.53;22.63;;;22.70;91.30;;;;;;5052969;28;20440;-63
2023/09/21 07:13:57;;;;;;;24.83;23.90;;;22.70;91.30;;;;;;5052738;28;20891;-63
2023/09/21 07:16:24;;;;;;;23.87;22.97;;;22.70;91.40;;;;;;5052915;28;20491;-62
2023/09/21 07:18:52;;;;;;;24.10;23.30;;;22.70;91.30;;;;;;5052857;28;20472;-63
2023/09/21 07:21:18;;;;;;;25.10;24.20;;;22.70;91.40;;;;;;5052824;28;21060;-61
2023/09/21 07:23:45;;;;;;;25.07;24.23;;;22.70;91.40;;;;;;5052693;28;20495;-63
2023/09/21 07:26:12;;;;;;;24.27;23.47;;;22.70;91.50;;;;;;5052796;28;20472;-62
2023/09/21 07:28:39;;;;;;;24.97;24.17;;;22.70;91.50;;;;;;5052633;28;20531;-63
2023/09/21 07:31:09;;;;;;;24.37;23.40;;;22.70;91.60;;;;;;5052591;28;20479;-62
2023/09/21 07:33:36;;;;;;;26.23;25.23;;;22.70;91.60;;;;;;5052378;28;20971;-63
2023/09/21 07:36:03;;;;;;;25.40;24.20;;;22.70;91.70;;;;;;5052445;28;20502;-62
2023/09/21 07:38:30;;;;;;;27.10;26.00;;;22.80;91.70;;;;;;5052508;28;20534;-62
2023/09/21 07:40:57;;;;;;;24.07;23.27;;;22.80;91.70;;;;;;5052668;28;20913;-62
2023/09/21 07:43:24;;;;;;;25.07;24.27;;;22.80;91.90;;;;;;5052386;28;20436;-62
2023/09/21 07:45:53;;;;;;;26.50;25.57;;;22.70;91.90;;;;;;5052317;28;20519;-61
2023/09/21 07:48:23;;;;;;;26.40;25.50;;;22.70;92.00;;;;;;5052221;28;20444;-62
2023/09/21 07:50:50;;;;;;;25.13;24.33;;;22.70;92.00;;;;;;5052322;28;20440;-64
2023/09/21 07:53:18;;;;;;;23.83;23.03;;;22.70;92.10;;;;;;5052040;28;20449;-63
2023/09/21 07:55:45;;;;;;;25.40;24.50;;;22.70;92.10;;;;;;5052141;28;20567;-64
2023/09/21 07:58:12;;;;;;;25.00;24.20;;;22.80;92.10;;;;;;5052196;28;20472;-63
2023/09/21 08:00:39;;;;;;;25.40;24.50;;;22.80;92.30;;;;;;5052127;28;20968;-62
2023/09/21 08:03:06;;;;;;;25.10;24.30;;;22.80;92.30;;;;;;5052006;28;20927;-63
2023/09/21 08:05:34;;;;;;;26.37;25.37;;;22.80;92.30;;;;;;5052014;28;20468;-62
2023/09/21 08:08:01;;;;;;;25.60;24.70;;;22.80;92.40;;;;;;5051962;28;20467;-62
2023/09/21 08:10:32;;;;;;;25.10;24.20;;;22.80;92.50;;;;;;5051934;28;20478;-62
2023/09/21 08:12:58;;;;;;;25.53;24.63;;;22.80;92.60;;;;;;5051887;28;20524;-61
2023/09/21 08:15:25;;;;;;;25.30;24.40;;;22.80;92.60;;;;;;5051428;28;20499;-60
2023/09/21 08:17:52;;;;;;;25.67;24.77;;;22.80;92.60;;;;;;5051896;28;20479;-63
2023/09/21 08:20:22;;;;;;;26.20;25.30;;;22.80;92.80;;;;;;5051776;28;20448;-62
2023/09/21 08:22:50;;;;;;;25.70;24.80;;;22.80;92.80;;;;;;5051718;28;20476;-61
2023/09/21 08:25:17;;;;;;;25.73;24.83;;;22.90;92.90;;;;;;5051399;28;20507;-62
2023/09/21 08:27:45;;;;;;;24.77;23.77;;;22.80;92.80;;;;;;5051637;28;20480;-63
2023/09/21 08:30:14;;;;;;;26.37;25.27;;;22.90;93.00;;;;;;5051616;28;20452;-62
2023/09/21 08:32:41;;;;;;;26.43;25.53;;;22.90;93.00;;;;;;5051559;28;20475;-62
2023/09/21 08:35:10;;;;;;;25.00;24.00;;;22.90;93.20;;;;;;5051412;28;20722;-62
2023/09/21 08:37:36;;;;;;;24.30;23.40;;;22.90;93.10;;;;;;5051449;28;20444;-61
2023/09/21 08:40:06;;;;;;;25.20;23.77;;;22.90;93.10;;;;;;5051431;28;20955;-61
2023/09/21 08:42:36;;;;;;;26.07;25.17;;;22.90;93.10;;;;;;5051341;28;20480;-62
2023/09/21 08:45:04;;;;;;;25.87;24.97;;;22.90;93.20;;;;;;5051099;28;20472;-63
2023/09/21 08:47:32;;;;;;;25.00;24.10;;;22.90;93.30;;;;;;5051360;28;20472;-63
2023/09/21 08:50:02;;;;;;;24.70;23.80;;;22.90;93.40;;;;;;5051355;28;20491;-62
2023/09/21 08:52:33;;;;;;;25.07;24.07;;;22.90;93.30;;;;;;5051432;28;20443;-62
2023/09/21 08:55:00;;;;;;;25.43;24.53;;;22.90;93.30;;;;;;5051069;28;20484;-63
2023/09/21 08:57:30;;;;;;;24.97;23.90;;;22.90;93.30;;;;;;5051307;28;20475;-62
2023/09/21 09:00:04;;;;;;;24.63;23.73;;;22.90;93.30;;;;;;5051387;28;20440;-63
2023/09/21 09:02:32;;;;;;;24.30;23.33;;;22.90;93.40;;;;;;5051182;28;20484;-62
2023/09/21 09:04:59;;;;;;;25.83;24.83;;;22.90;93.50;;;;;;5051104;28;20467;-63
2023/09/21 09:07:26;;;;;;;24.40;23.50;;;22.90;93.60;;;;;;5051296;28;20880;-62
2023/09/21 09:09:53;;;;;;;24.60;23.63;;;22.90;93.60;;;;;;5051161;28;20479;-62
2023/09/21 09:12:24;;;;;;;25.30;24.40;;;22.90;93.60;;;;;;5051097;28;20479;-62
2023/09/21 09:14:54;;;;;;;24.30;23.50;;;22.90;93.90;;;;;;5050874;28;20488;-64
2023/09/21 09:17:21;;;;;;;24.50;23.60;;;22.90;93.70;;;;;;5051494;28;20444;-62
2023/09/21 09:19:48;;;;;;;26.50;25.40;;;22.90;93.80;;;;;;5051082;28;20440;-60
2023/09/21 09:22:16;;;;;;;24.07;23.17;;;22.90;93.80;;;;;;5051122;28;20507;-62
2023/09/21 09:24:43;;;;;;;25.93;24.83;;;23.00;93.80;;;;;;5050693;28;20472;-61
2023/09/21 09:27:09;;;;;;;25.47;24.67;;;23.00;93.90;;;;;;5051943;28;20462;-62
2023/09/21 09:29:48;;;;;;;25.40;24.50;;;22.90;93.80;;;;;;5054929;28;20482;-62
2023/09/21 09:32:18;;;;;;;24.93;24.03;;;23.00;93.90;;;;;;5054876;28;20951;-62
2023/09/21 09:34:46;;;;;;;26.53;25.40;;;23.00;93.90;;;;;;5054601;28;20990;-61
2023/09/21 09:37:15;;;;;;;25.47;24.60;;;23.00;93.90;;;;;;5054825;28;20634;-62
2023/09/21 09:39:42;;;;;;;25.93;24.73;;;23.00;93.90;;;;;;5054452;28;20794;-61
2023/09/21 09:42:11;;;;;;;24.90;24.00;;;23.00;93.90;;;;;;5054576;28;20511;-60
2023/09/21 09:44:47;;;;;;;25.43;24.53;;;23.00;94.00;;;;;;5054401;28;20471;-62
2023/09/21 09:47:18;;;;;;;26.00;25.10;;;23.00;94.00;;;;;;5054621;28;20443;-62
2023/09/21 09:49:49;;;;;;;24.60;23.80;;;23.00;94.10;;;;;;5054612;28;20498;-61
2023/09/21 09:52:18;;;;;;;24.63;23.73;;;23.00;94.10;;;;;;5054554;28;20436;-62
2023/09/21 09:54:47;;;;;;;25.40;24.50;;;23.00;94.20;;;;;;5054259;28;20833;-62
2023/09/21 09:57:15;;;;;;;24.80;24.00;;;23.00;94.20;;;;;;5054737;28;20830;-63
2023/09/21 09:59:44;;;;;;;24.23;23.33;;;23.00;94.30;;;;;;5054380;28;20436;-64
2023/09/21 10:02:17;;;;;;;25.50;24.60;;;23.00;94.20;;;;;;5054210;28;20479;-62
2023/09/21 10:04:47;;;;;;;26.50;25.50;;;23.10;94.20;;;;;;5054015;28;20460;-64
2023/09/21 10:07:16;;;;;;;24.43;23.53;;;23.10;94.30;;;;;;5054319;28;20436;-62
2023/09/21 10:09:44;;;;;;;24.57;23.77;;;23.10;94.30;;;;;;5054342;28;20534;-62
2023/09/21 10:12:12;;;;;;;24.97;23.90;;;23.00;94.40;;;;;;5054133;28;20472;-62
2023/09/21 10:14:43;;;;;;;25.23;24.13;;;23.10;94.40;;;;;;5053882;28;20496;-63
2023/09/21 10:17:14;;;;;;;25.30;24.40;;;23.00;94.50;;;;;;5054116;28;20506;-63
2023/09/21 10:19:43;;;;;;;24.80;23.90;;;23.10;94.50;;;;;;5054077;28;20444;-63
2023/09/21 10:22:25;;;;;;;24.90;24.00;;;23.10;94.60;;;;;;5054032;28;20472;-62
2023/09/21 10:24:53;;;;;;;25.13;24.33;;;23.10;94.90;;;;;;5053543;28;20541;-62
2023/09/21 10:27:24;;;;;;;25.20;24.30;;;23.10;94.70;;;;;;5054277;28;20539;-65
2023/09/21 10:29:54;;;;;;;25.73;24.73;;;23.10;94.70;;;;;;5053834;28;20861;-64
2023/09/21 10:32:24;;;;;;;25.10;24.20;;;23.10;94.70;;;;;;5053986;28;20795;-64
2023/09/21 10:34:52;;;;;;;25.53;24.73;;;23.10;94.80;;;;;;5053588;28;20464;-64
2023/09/21 10:37:28;;;;;;;26.13;24.70;;;23.10;94.70;;;;;;5053735;28;20541;-64
2023/09/21 10:39:58;;;;;;;24.60;23.70;;;23.10;94.80;;;;;;5053708;28;20462;-64
2023/09/21 10:42:33;;;;;;;24.80;24.00;;;23.10;94.80;;;;;;5053511;28;20480;-65
2023/09/21 10:45:05;;;;;;;24.63;23.73;;;23.10;94.80;;;;;;5053399;28;21027;-65
2023/09/21 10:47:51;;;;;;;25.90;24.90;;;23.10;94.90;;;;;;5053529;28;20881;-66
2023/09/21 10:50:20;;;;;;;24.43;23.53;;;23.10;94.80;;;;;;5053614;28;20458;-65
2023/09/21 10:52:51;;;;;;;24.50;23.70;;;23.10;94.80;;;;;;5053355;28;20440;-64
2023/09/21 10:55:19;;;;;;;24.67;23.87;;;23.10;94.80;;;;;;5053208;28;20478;-65
2023/09/21 10:57:49;;;;;;;26.10;25.10;;;23.10;94.90;;;;;;5053293;28;20490;-64
2023/09/21 11:00:18;;;;;;;27.70;26.60;;;23.10;94.90;;;;;;5053333;28;20475;-64
2023/09/21 11:02:46;;;;;;;27.13;26.13;;;23.10;94.90;;;;;;5053167;28;20484;-63
2023/09/21 11:05:16;;;;;;;24.73;23.73;;;23.10;94.90;;;;;;5053066;28;20827;-65
2023/09/21 11:07:43;;;;;;;23.80;22.90;;;23.10;95.20;;;;;;5053065;28;20950;-66
2023/09/21 11:10:14;;;;;;;24.43;23.53;;;23.20;95.20;;;;;;5053020;28;20444;-65
2023/09/21 11:12:41;;;;;;;24.67;23.77;;;23.10;95.10;;;;;;5053070;28;20476;-65
2023/09/21 11:15:12;;;;;;;26.07;24.70;;;23.10;95.20;;;;;;5052635;28;20496;-64
2023/09/21 11:17:41;;;;;;;25.23;24.27;;;23.10;95.20;;;;;;5052972;28;20952;-65
2023/09/21 11:20:11;;;;;;;24.90;23.60;;;23.20;95.20;;;;;;5052881;28;20476;-65
2023/09/21 11:22:39;;;;;;;25.13;24.23;;;23.10;95.20;;;;;;5052593;28;20480;-64
2023/09/21 11:25:09;;;;;;;25.97;25.07;;;23.20;95.20;;;;;;5052538;28;20514;-65
2023/09/21 11:27:38;;;;;;;24.00;22.90;;;23.20;95.10;;;;;;5052810;28;20861;-64
2023/09/21 11:30:07;;;;;;;24.50;23.50;;;23.20;95.20;;;;;;5052723;28;20470;-63
2023/09/21 11:32:42;;;;;;;24.23;23.40;;;23.20;95.20;;;;;;5052723;28;20507;-63
2023/09/21 11:35:09;;;;;;;24.83;23.70;;;23.20;95.20;;;;;;5052334;28;20471;-65
2023/09/21 11:37:36;;;;;;;25.13;24.23;;;23.20;95.20;;;;;;5052755;28;20467;-64
2023/09/21 11:40:10;;;;;;;24.07;23.27;;;23.20;95.20;;;;;;5052574;28;20878;-65
2023/09/21 11:42:42;;;;;;;25.27;24.30;;;23.20;95.30;;;;;;5052445;28;20484;-64
2023/09/21 11:45:15;;;;;;;24.93;23.80;;;23.20;95.30;;;;;;5052333;28;20487;-64
2023/09/21 11:47:46;;;;;;;24.00;23.20;;;23.20;95.30;;;;;;5052433;28;20444;-63
2023/09/21 11:50:13;;;;;;;24.33;23.40;;;23.20;95.30;;;;;;5051987;28;20436;-65
2023/09/21 11:52:40;;;;;;;23.67;22.70;;;23.20;95.40;;;;;;5052302;28;20472;-65
2023/09/21 11:55:07;;;;;;;25.00;24.20;;;23.20;95.40;;;;;;5051904;28;20495;-64
2023/09/21 11:57:34;;;;;;;24.83;23.93;;;23.20;95.40;;;;;;5052159;28;20936;-64
2023/09/21 12:00:13;;;;;;;25.40;24.30;;;23.20;95.40;;;;;;5052301;28;20475;-64
2023/09/21 12:02:40;;;;;;;25.10;24.00;;;23.20;95.50;;;;;;5052066;28;20484;-66
2023/09/21 12:05:14;;;;;;;25.63;24.67;;;23.20;95.50;;;;;;5051658;28;20539;-65
2023/09/21 12:07:41;;;;;;;24.23;23.37;;;23.20;95.40;;;;;;5052048;28;20436;-64
2023/09/21 12:10:09;;;;;;;23.60;22.80;;;23.20;95.50;;;;;;5046155;28;20449;-64
2023/09/21 12:12:36;;;;;;;24.50;23.60;;;23.20;95.50;;;;;;5041742;28;20477;-68
2023/09/21 12:15:05;;;;;;;26.77;25.60;;;23.30;96.80;;;;;;5048011;28;20500;-65
2023/09/21 12:17:36;;;;;;;25.30;24.27;;;23.30;97.90;;;;;;5049367;28;20444;-64
2023/09/21 12:20:11;;;;;;;26.30;25.40;;;23.30;97.80;;;;;;5052124;28;20447;-59
2023/09/21 12:22:40;;;;;;;24.60;23.70;;;23.40;97.80;;;;;;5051754;28;20513;-61
2023/09/21 12:25:11;;;;;;;25.27;24.13;;;23.40;97.50;;;;;;5051550;28;20480;-62
2023/09/21 12:27:38;;;;;;;23.93;22.80;;;23.40;97.30;;;;;;5051543;28;20464;-62
2023/09/21 12:30:12;;;;;;;22.53;21.70;;;23.30;97.20;;;;;;5051725;28;20490;-61
2023/09/21 12:32:43;;;;;;;23.50;22.60;;;23.30;96.90;;;;;;5051755;28;20444;-60
2023/09/21 12:35:17;;;;;;;25.20;24.30;;;23.30;96.70;;;;;;5051677;28;20470;-61
2023/09/21 12:37:50;;;;;;;26.07;24.97;;;23.30;96.60;;;;;;5051747;28;20444;-61